createdAt,value
2023-02-07T00:01:25.375Z,78.22
2023-02-07T00:03:52.822Z,77.90
2023-02-07T00:06:23.588Z,77.91
2023-02-07T00:08:50.564Z,78.47
2023-02-07T00:11:20.022Z,78.24
2023-02-07T00:13:49.278Z,78.63
2023-02-07T00:16:16.143Z,78.63
2023-02-07T00:18:42.847Z,78.44
2023-02-07T00:21:16.109Z,78.46
2023-02-07T00:23:43.659Z,78.59
2023-02-07T00:26:11.482Z,78.46
2023-02-07T00:28:39.205Z,78.64
2023-02-07T00:31:10.058Z,79.50
2023-02-07T00:33:38.608Z,79.32
2023-02-07T00:36:08.106Z,79.16
2023-02-07T00:38:34.792Z,80.01
2023-02-07T00:41:01.731Z,80.37
2023-02-07T00:43:30.351Z,80.13
2023-02-07T00:46:02.227Z,79.84
2023-02-07T00:48:30.501Z,79.64
2023-02-07T00:50:58.413Z,79.69
2023-02-07T00:53:25.762Z,79.40
2023-02-07T00:55:52.779Z,78.57
2023-02-07T00:58:19.437Z,78.33
2023-02-07T01:00:46.634Z,77.90
2023-02-07T01:03:13.856Z,78.29
2023-02-07T01:05:40.920Z,78.02
2023-02-07T01:08:07.770Z,78.03
2023-02-07T01:10:35.808Z,78.04
2023-02-07T01:13:02.480Z,77.67
2023-02-07T01:15:29.364Z,76.64
2023-02-07T01:17:56.049Z,77.16
2023-02-07T01:20:22.911Z,77.15
2023-02-07T01:22:49.494Z,77.71
2023-02-07T01:25:16.154Z,77.81
2023-02-07T01:27:42.791Z,77.88
2023-02-07T01:30:09.959Z,77.53
2023-02-07T01:32:36.539Z,76.87
2023-02-07T01:35:03.513Z,77.43
2023-02-07T01:37:32.134Z,77.29
2023-02-07T01:39:58.738Z,77.71
2023-02-07T01:42:28.082Z,77.23
2023-02-07T01:44:54.657Z,77.86
2023-02-07T01:47:23.295Z,77.33
2023-02-07T01:49:52.979Z,78.18
2023-02-07T01:52:31.963Z,77.60
2023-02-07T01:55:03.276Z,77.93
2023-02-07T01:57:30.825Z,78.11
2023-02-07T01:59:59.289Z,77.92
2023-02-07T02:02:29.169Z,77.69
2023-02-07T02:04:57.643Z,78.24
2023-02-07T02:07:26.227Z,78.32
2023-02-07T02:09:53.765Z,78.57
2023-02-07T02:13:02.476Z,79.23
2023-02-07T02:15:49.253Z,78.90
2023-02-07T02:18:36.634Z,79.01
2023-02-07T02:21:06.238Z,78.95
2023-02-07T02:23:35.752Z,77.95
2023-02-07T02:26:21.041Z,78.41
2023-02-07T02:29:02.949Z,77.51
2023-02-07T02:31:39.714Z,78.06
2023-02-07T02:34:24.397Z,77.68
2023-02-07T02:36:56.648Z,77.28
2023-02-07T02:39:41.604Z,77.06
2023-02-07T02:42:17.113Z,77.26
2023-02-07T02:44:55.879Z,76.57
2023-02-07T02:47:22.687Z,75.56
2023-02-07T02:49:49.840Z,76.06
2023-02-07T02:52:17.698Z,76.44
2023-02-07T02:54:44.424Z,76.25
2023-02-07T02:57:55.328Z,76.46
2023-02-07T03:00:50.149Z,76.97
2023-02-07T03:03:28.963Z,76.32
2023-02-07T03:06:13.885Z,77.21
2023-02-07T03:09:05.333Z,77.33
2023-02-07T03:11:42.153Z,77.08
2023-02-07T03:14:14.661Z,78.16
2023-02-07T03:16:58.213Z,79.86
2023-02-07T03:19:46.240Z,80.80
2023-02-07T03:22:18.291Z,82.01
2023-02-07T03:24:50.635Z,82.95
2023-02-07T03:27:21.460Z,83.20
2023-02-07T03:29:52.332Z,83.10
2023-02-07T03:32:20.506Z,83.05
2023-02-07T03:35:18.177Z,82.88
2023-02-07T03:37:49.849Z,82.73
2023-02-07T03:40:16.991Z,82.79
2023-02-07T03:42:50.954Z,83.26
2023-02-07T03:45:20.389Z,83.23
2023-02-07T03:47:47.325Z,83.27
2023-02-07T03:50:15.227Z,83.27
2023-02-07T03:52:41.966Z,83.17
2023-02-07T03:55:09.124Z,83.23
2023-02-07T03:57:35.703Z,83.11
2023-02-07T04:00:02.636Z,83.31
2023-02-07T04:02:39.122Z,82.98
2023-02-07T04:05:06.160Z,82.52
2023-02-07T04:07:32.810Z,82.68
2023-02-07T04:09:59.496Z,82.74
2023-02-07T04:12:32.649Z,82.79
2023-02-07T04:15:04.569Z,82.67
2023-02-07T04:17:31.675Z,82.88
2023-02-07T04:19:58.829Z,82.96
2023-02-07T04:22:25.613Z,83.08
2023-02-07T04:24:52.159Z,82.98
2023-02-07T04:27:18.800Z,83.17
2023-02-07T04:29:45.385Z,82.94
2023-02-07T04:32:12.045Z,82.73
2023-02-07T04:34:38.643Z,82.45
2023-02-07T04:37:05.230Z,82.37
2023-02-07T04:39:32.016Z,81.92
2023-02-07T04:41:58.711Z,82.27
2023-02-07T04:44:25.310Z,82.37
2023-02-07T04:46:51.887Z,82.38
2023-02-07T04:49:18.493Z,82.53
2023-02-07T04:51:45.166Z,82.92
2023-02-07T04:54:11.886Z,82.92
2023-02-07T04:56:38.493Z,82.90
2023-02-07T04:59:05.106Z,82.41
2023-02-07T05:01:32.222Z,82.44
2023-02-07T05:03:59.140Z,82.80
2023-02-07T05:06:25.819Z,82.19
2023-02-07T05:08:52.448Z,81.46
2023-02-07T05:11:19.552Z,81.57
2023-02-07T05:13:46.366Z,82.30
2023-02-07T05:16:13.024Z,82.97
2023-02-07T05:18:39.594Z,83.17
2023-02-07T05:21:06.255Z,83.02
2023-02-07T05:23:32.857Z,83.34
2023-02-07T05:25:59.612Z,82.93
2023-02-07T05:28:26.290Z,83.08
2023-02-07T05:30:55.530Z,82.97
2023-02-07T05:33:22.149Z,82.15
2023-02-07T05:35:48.756Z,82.50
2023-02-07T05:38:17.646Z,82.64
2023-02-07T05:40:44.815Z,82.44
2023-02-07T05:43:12.352Z,83.16
2023-02-07T05:45:39.583Z,83.02
2023-02-07T05:48:06.626Z,82.83
2023-02-07T05:50:34.199Z,82.86
2023-02-07T05:53:09.686Z,82.47
2023-02-07T05:55:36.835Z,81.92
2023-02-07T05:58:03.992Z,80.25
2023-02-07T06:00:30.695Z,79.27
2023-02-07T06:02:57.303Z,78.96
2023-02-07T06:05:24.715Z,78.48
2023-02-07T06:07:52.181Z,78.01
2023-02-07T06:10:18.888Z,77.77
2023-02-07T06:12:45.543Z,77.88
2023-02-07T06:15:12.196Z,77.84
2023-02-07T06:17:38.798Z,77.47
2023-02-07T06:20:05.996Z,77.01
2023-02-07T06:22:32.602Z,76.90
2023-02-07T06:24:59.157Z,76.53
2023-02-07T06:27:25.799Z,76.65
2023-02-07T06:29:52.454Z,76.90
2023-02-07T06:32:19.029Z,76.75
2023-02-07T06:34:45.700Z,76.64
2023-02-07T06:37:12.622Z,76.82
2023-02-07T06:39:39.760Z,76.54
2023-02-07T06:42:06.560Z,76.14
2023-02-07T06:44:33.162Z,76.06
2023-02-07T06:46:59.924Z,76.01
2023-02-07T06:49:26.484Z,75.61
2023-02-07T06:51:53.075Z,76.24
2023-02-07T06:54:19.758Z,77.03
2023-02-07T06:56:46.373Z,76.64
2023-02-07T06:59:13.065Z,76.72
2023-02-07T07:01:39.731Z,76.70
2023-02-07T07:04:06.597Z,76.64
2023-02-07T07:06:33.404Z,77.05
2023-02-07T07:08:59.994Z,77.58
2023-02-07T07:11:26.625Z,76.91
2023-02-07T07:13:53.212Z,77.27
2023-02-07T07:16:20.010Z,77.23
2023-02-07T07:18:46.696Z,77.17
2023-02-07T07:21:13.351Z,77.39
2023-02-07T07:23:40.029Z,77.60
2023-02-07T07:26:06.758Z,77.88
2023-02-07T07:28:33.451Z,78.48
2023-02-07T07:31:08.003Z,77.62
2023-02-07T07:33:36.236Z,78.13
2023-02-07T07:36:04.099Z,77.88
2023-02-07T07:38:31.532Z,77.98
2023-02-07T07:40:58.433Z,77.98
2023-02-07T07:43:25.104Z,78.18
2023-02-07T07:45:56.643Z,78.89
2023-02-07T07:48:24.438Z,79.02
2023-02-07T07:50:51.542Z,79.19
2023-02-07T07:53:19.359Z,79.40
2023-02-07T07:55:50.791Z,79.58
2023-02-07T07:58:18.415Z,80.03
2023-02-07T08:00:46.259Z,80.57
2023-02-07T08:03:13.544Z,80.88
2023-02-07T08:05:40.530Z,80.93
2023-02-07T08:08:07.573Z,80.59
2023-02-07T08:10:34.248Z,80.47
2023-02-07T08:13:00.922Z,80.59
2023-02-07T08:15:27.941Z,80.45
2023-02-07T08:17:54.535Z,80.58
2023-02-07T08:20:21.191Z,80.78
2023-02-07T08:22:47.838Z,80.44
2023-02-07T08:25:14.421Z,80.35
2023-02-07T08:27:40.995Z,80.51
2023-02-07T08:30:12.643Z,80.63
2023-02-07T08:32:39.886Z,79.82
2023-02-07T08:35:07.395Z,80.39
2023-02-07T08:37:34.107Z,80.56
2023-02-07T08:40:00.983Z,80.56
2023-02-07T08:42:27.802Z,80.53
2023-02-07T08:44:54.397Z,80.55
2023-02-07T08:47:20.994Z,79.95
2023-02-07T08:49:47.607Z,80.19
2023-02-07T08:52:14.260Z,79.73
2023-02-07T08:54:40.881Z,79.69
2023-02-07T08:57:07.570Z,79.73
2023-02-07T08:59:34.204Z,79.79
2023-02-07T09:02:00.832Z,79.59
2023-02-07T09:04:27.506Z,79.76
2023-02-07T09:06:54.139Z,79.59
2023-02-07T09:09:20.827Z,79.34
2023-02-07T09:11:47.389Z,79.26
2023-02-07T09:14:14.068Z,78.79
2023-02-07T09:16:40.831Z,79.08
2023-02-07T09:19:07.563Z,80.48
2023-02-07T09:21:34.319Z,76.64
2023-02-07T09:24:00.909Z,75.71
2023-02-07T09:26:27.671Z,75.20
2023-02-07T09:28:54.233Z,73.69
2023-02-07T09:31:21.889Z,72.37
2023-02-07T09:33:48.590Z,73.01
2023-02-07T09:36:23.966Z,73.86
2023-02-07T09:38:51.632Z,73.70
2023-02-07T09:41:26.435Z,73.44
2023-02-07T09:44:07.521Z,71.93
2023-02-07T09:46:42.290Z,69.03
2023-02-07T09:49:38.212Z,68.25
2023-02-07T09:52:10.210Z,62.27
2023-02-07T09:54:45.704Z,58.81
2023-02-07T09:57:23.690Z,56.03
2023-02-07T10:00:10.008Z,55.35
2023-02-07T10:02:44.474Z,56.64
2023-02-07T10:05:18.763Z,59.27
2023-02-07T10:07:47.135Z,61.79
2023-02-07T10:10:20.129Z,65.54
2023-02-07T10:12:58.969Z,67.53
2023-02-07T10:15:47.536Z,67.84
2023-02-07T10:18:42.578Z,68.10
2023-02-07T10:21:14.073Z,62.75
2023-02-07T10:23:59.402Z,56.07
2023-02-07T10:26:37.949Z,54.65
2023-02-07T10:29:19.494Z,51.47
2023-02-07T10:31:53.518Z,51.73
2023-02-07T10:34:25.991Z,51.49
2023-02-07T10:36:56.100Z,49.58
2023-02-07T10:39:37.210Z,48.28
2023-02-07T10:42:03.993Z,48.32
2023-02-07T10:44:30.955Z,45.15
2023-02-07T10:47:01.721Z,44.24
2023-02-07T10:49:30.987Z,42.83
2023-02-07T10:52:02.728Z,41.04
2023-02-07T10:54:29.684Z,43.19
2023-02-07T10:57:02.704Z,42.58
2023-02-07T10:59:45.586Z,43.79
2023-02-07T11:02:31.730Z,45.06
2023-02-07T11:05:24.722Z,45.50
2023-02-07T11:08:01.745Z,44.56
2023-02-07T11:10:44.034Z,44.40
2023-02-07T11:13:45.557Z,44.68
2023-02-07T11:16:17.337Z,46.47
2023-02-07T11:18:59.411Z,48.76
2023-02-07T11:21:44.174Z,46.13
2023-02-07T11:24:21.138Z,44.82
2023-02-07T11:27:05.592Z,41.52
2023-02-07T11:29:44.090Z,39.83
2023-02-07T11:32:15.013Z,38.43
2023-02-07T11:34:45.853Z,36.34
2023-02-07T11:37:33.030Z,35.89
2023-02-07T11:40:19.936Z,35.00
2023-02-07T11:43:09.824Z,35.81
2023-02-07T11:45:41.708Z,34.76
2023-02-07T11:48:18.525Z,34.35
2023-02-07T11:50:52.538Z,33.53
2023-02-07T11:53:24.517Z,32.71
2023-02-07T11:55:54.541Z,33.58
2023-02-07T11:58:32.394Z,34.12
2023-02-07T12:01:02.258Z,34.89
2023-02-07T12:03:33.512Z,36.35
2023-02-07T12:06:05.496Z,38.66
2023-02-07T12:08:35.238Z,38.97
2023-02-07T12:11:12.682Z,40.62
2023-02-07T12:13:46.420Z,40.10
2023-02-07T12:16:36.669Z,39.67
2023-02-07T12:19:12.884Z,39.26
2023-02-07T12:22:01.606Z,39.04
2023-02-07T12:24:36.200Z,38.84
2023-02-07T12:27:13.745Z,38.79
2023-02-07T12:30:09.384Z,38.66
2023-02-07T12:32:50.433Z,39.44
2023-02-07T12:35:41.096Z,40.60
2023-02-07T12:38:27.952Z,40.05
2023-02-07T12:40:54.663Z,41.22
2023-02-07T12:43:25.686Z,44.86
2023-02-07T12:46:14.333Z,44.76
2023-02-07T12:49:02.719Z,44.75
2023-02-07T12:51:46.458Z,44.79
2023-02-07T12:54:16.930Z,46.65
2023-02-07T12:57:08.812Z,48.65
2023-02-07T13:00:04.892Z,49.52
2023-02-07T13:02:50.457Z,50.99
2023-02-07T13:05:48.627Z,50.23
2023-02-07T13:08:37.156Z,52.41
2023-02-07T13:11:03.677Z,52.50
2023-02-07T13:13:42.317Z,53.64
2023-02-07T13:16:20.274Z,53.49
2023-02-07T13:19:00.412Z,55.45
2023-02-07T13:21:39.038Z,54.52
2023-02-07T13:24:07.814Z,57.50
2023-02-07T13:26:36.832Z,58.19
2023-02-07T13:29:11.920Z,58.22
2023-02-07T13:31:46.915Z,57.95
2023-02-07T13:34:24.590Z,58.65
2023-02-07T13:36:52.611Z,58.38
2023-02-07T13:39:30.105Z,58.84
2023-02-07T13:42:28.962Z,60.36
2023-02-07T13:45:11.772Z,59.93
2023-02-07T13:47:53.789Z,60.36
2023-02-07T13:50:23.625Z,59.67
2023-02-07T13:52:58.843Z,60.56
2023-02-07T13:55:31.264Z,59.96
2023-02-07T13:58:16.733Z,60.06
2023-02-07T14:00:58.350Z,61.00
2023-02-07T14:03:31.251Z,58.87
2023-02-07T14:06:12.882Z,59.19
2023-02-07T14:08:39.808Z,58.49
2023-02-07T14:11:32.965Z,58.29
2023-02-07T14:14:11.581Z,58.21
2023-02-07T14:16:44.245Z,58.57
2023-02-07T14:19:13.141Z,59.15
2023-02-07T14:21:41.927Z,58.61
2023-02-07T14:24:14.371Z,57.93
2023-02-07T14:26:43.804Z,58.58
2023-02-07T14:29:27.418Z,58.59
2023-02-07T14:32:12.649Z,58.93
2023-02-07T14:34:58.721Z,59.97
2023-02-07T14:37:51.561Z,59.73
2023-02-07T14:40:24.745Z,60.40
2023-02-07T14:43:17.851Z,60.09
2023-02-07T14:45:50.375Z,60.42
2023-02-07T14:48:47.776Z,60.86
2023-02-07T14:51:29.682Z,61.22
2023-02-07T14:54:15.063Z,61.49
2023-02-07T14:57:02.137Z,60.76
2023-02-07T14:59:33.178Z,61.20
2023-02-07T15:02:38.480Z,61.27
2023-02-07T15:05:59.373Z,62.32
2023-02-07T15:08:34.856Z,63.15
2023-02-07T15:11:12.765Z,63.42
2023-02-07T15:13:43.066Z,63.94
2023-02-07T15:16:14.657Z,64.26
2023-02-07T15:18:54.836Z,64.63
2023-02-07T15:21:42.053Z,64.49
2023-02-07T15:24:17.670Z,64.63
2023-02-07T15:26:49.768Z,65.49
2023-02-07T15:29:25.554Z,66.14
2023-02-07T15:31:53.906Z,67.15
2023-02-07T15:34:24.786Z,67.04
2023-02-07T15:36:52.918Z,66.75
2023-02-07T15:39:25.535Z,67.65
2023-02-07T15:41:55.475Z,68.00
2023-02-07T15:44:34.292Z,68.06
2023-02-07T15:47:06.986Z,67.82
2023-02-07T15:49:40.702Z,67.90
2023-02-07T15:52:25.350Z,68.81
2023-02-07T15:54:54.301Z,68.72
2023-02-07T15:57:25.972Z,69.23
2023-02-07T15:59:55.492Z,68.98
2023-02-07T16:02:27.983Z,69.42
2023-02-07T16:04:54.575Z,69.30
2023-02-07T16:07:22.304Z,70.05
2023-02-07T16:09:49.177Z,70.19
2023-02-07T16:12:44.592Z,70.60
2023-02-07T16:15:33.390Z,70.96
2023-02-07T16:18:01.507Z,70.92
2023-02-07T16:23:01.800Z,71.44
2023-02-07T16:25:33.371Z,72.48
2023-02-07T16:28:01.235Z,71.21
2023-02-07T16:30:32.996Z,71.67
2023-02-07T16:33:04.744Z,71.95
2023-02-07T16:35:31.515Z,72.06
2023-02-07T16:37:58.184Z,72.59
2023-02-07T16:40:26.663Z,72.54
2023-02-07T16:42:55.470Z,72.70
2023-02-07T16:45:25.955Z,72.88
2023-02-07T16:47:52.473Z,73.06
2023-02-07T16:50:25.660Z,73.29
2023-02-07T16:52:56.815Z,73.07
2023-02-07T16:55:26.455Z,73.47
2023-02-07T16:57:55.402Z,74.29
2023-02-07T17:00:28.589Z,74.64
2023-02-07T17:02:58.771Z,75.46
2023-02-07T17:05:25.790Z,75.25
2023-02-07T17:07:52.366Z,75.40
2023-02-07T17:10:30.006Z,75.50
2023-02-07T17:12:56.942Z,75.54
2023-02-07T17:15:24.101Z,75.57
2023-02-07T17:17:52.988Z,76.12
2023-02-07T17:20:30.951Z,76.10
2023-02-07T17:22:57.568Z,75.77
2023-02-07T17:25:27.628Z,74.41
2023-02-07T17:27:54.444Z,74.40
2023-02-07T17:30:23.868Z,75.12
2023-02-07T17:32:50.552Z,75.34
2023-02-07T17:35:17.744Z,75.82
2023-02-07T17:37:44.452Z,75.98
2023-02-07T17:40:22.978Z,76.37
2023-02-07T17:42:50.269Z,76.59
2023-02-07T17:45:17.264Z,76.27
2023-02-07T17:47:43.933Z,76.15
2023-02-07T17:50:17.944Z,76.17
2023-02-07T17:52:44.843Z,76.13
2023-02-07T17:55:11.439Z,76.24
2023-02-07T17:57:38.304Z,77.31
2023-02-07T18:00:05.626Z,77.28
2023-02-07T18:02:39.212Z,77.62
2023-02-07T18:05:06.261Z,77.65
2023-02-07T18:07:32.884Z,77.51
2023-02-07T18:09:59.447Z,77.46
2023-02-07T18:12:26.059Z,77.57
2023-02-07T18:14:53.204Z,77.16
2023-02-07T18:17:20.621Z,77.22
2023-02-07T18:19:47.262Z,77.32
2023-02-07T18:22:13.825Z,77.38
2023-02-07T18:24:40.436Z,77.21
2023-02-07T18:27:07.111Z,76.67
2023-02-07T18:29:33.748Z,76.46
2023-02-07T18:32:00.386Z,77.17
2023-02-07T18:34:27.026Z,77.08
2023-02-07T18:36:53.695Z,78.03
2023-02-07T18:39:20.279Z,78.01
2023-02-07T18:41:46.916Z,78.09
2023-02-07T18:44:13.954Z,78.52
2023-02-07T18:46:40.580Z,78.66
2023-02-07T18:49:07.230Z,78.62
2023-02-07T18:51:34.090Z,79.05
2023-02-07T18:54:00.728Z,79.69
2023-02-07T18:56:27.707Z,79.25
2023-02-07T18:58:56.717Z,78.59
2023-02-07T19:01:25.750Z,78.47
2023-02-07T19:03:58.290Z,78.10
2023-02-07T19:06:27.873Z,78.05
2023-02-07T19:08:55.404Z,77.49
2023-02-07T19:11:22.487Z,77.38
2023-02-07T19:13:49.320Z,77.38
2023-02-07T19:16:19.093Z,78.13
2023-02-07T19:18:46.898Z,77.93
2023-02-07T19:21:21.683Z,77.93
2023-02-07T19:23:48.533Z,77.35
2023-02-07T19:26:15.170Z,78.04
2023-02-07T19:28:42.194Z,78.91
2023-02-07T19:31:13.454Z,78.81
2023-02-07T19:33:40.951Z,78.82
2023-02-07T19:36:10.056Z,78.99
2023-02-07T19:38:36.919Z,79.40
2023-02-07T19:41:04.412Z,78.69
2023-02-07T19:43:31.465Z,79.12
2023-02-07T19:45:58.130Z,79.37
2023-02-07T19:48:24.795Z,79.81
2023-02-07T19:50:58.908Z,79.43
2023-02-07T19:53:27.541Z,79.54
2023-02-07T19:55:56.939Z,79.67
2023-02-07T19:58:23.509Z,80.10
2023-02-07T20:00:50.077Z,80.64
2023-02-07T20:03:16.691Z,80.09
2023-02-07T20:05:45.212Z,79.20
2023-02-07T20:08:12.719Z,78.57
2023-02-07T20:10:47.343Z,78.20
2023-02-07T20:13:15.244Z,78.53
2023-02-07T20:15:45.716Z,79.56
2023-02-07T20:18:13.045Z,79.46
2023-02-07T20:20:41.980Z,79.32
2023-02-07T20:23:09.527Z,79.48
2023-02-07T20:25:40.111Z,78.78
2023-02-07T20:28:07.890Z,78.69
2023-02-07T20:30:35.925Z,78.96
2023-02-07T20:33:02.611Z,78.82
2023-02-07T20:35:29.170Z,78.93
2023-02-07T20:37:55.846Z,79.21
2023-02-07T20:40:22.424Z,79.47
2023-02-07T20:42:49.122Z,79.13
2023-02-07T20:45:15.697Z,78.36
2023-02-07T20:47:42.392Z,77.80
2023-02-07T20:50:09.616Z,78.40
2023-02-07T20:52:37.543Z,78.29
2023-02-07T20:55:05.740Z,79.10
2023-02-07T20:57:32.552Z,79.25
2023-02-07T20:59:59.180Z,79.66
2023-02-07T21:02:25.853Z,79.68
2023-02-07T21:04:52.599Z,79.76
2023-02-07T21:07:19.198Z,79.38
2023-02-07T21:09:46.199Z,79.90
2023-02-07T21:12:13.192Z,79.60
2023-02-07T21:14:40.370Z,79.15
2023-02-07T21:17:07.539Z,79.31
2023-02-07T21:19:35.711Z,78.74
2023-02-07T21:22:02.367Z,78.69
2023-02-07T21:24:29.019Z,78.52
2023-02-07T21:26:57.069Z,79.07
2023-02-07T21:29:24.830Z,78.81
2023-02-07T21:31:51.700Z,78.45
2023-02-07T21:34:21.241Z,78.73
2023-02-07T21:36:49.334Z,78.61
2023-02-07T21:39:16.465Z,78.70
2023-02-07T21:41:45.009Z,78.70
2023-02-07T21:44:13.804Z,78.39
2023-02-07T21:46:42.308Z,78.41
2023-02-07T21:49:14.660Z,78.23
2023-02-07T21:51:43.059Z,78.39
2023-02-07T21:54:09.940Z,78.33
2023-02-07T21:56:39.682Z,78.35
2023-02-07T21:59:10.344Z,78.11
2023-02-07T22:01:37.186Z,78.46
2023-02-07T22:04:05.864Z,78.18
2023-02-07T22:06:33.206Z,78.38
2023-02-07T22:09:01.411Z,78.19
2023-02-07T22:11:31.488Z,77.88
2023-02-07T22:13:58.240Z,78.46
2023-02-07T22:16:26.533Z,78.85
2023-02-07T22:18:54.006Z,79.05
2023-02-07T22:21:23.340Z,78.71
2023-02-07T22:23:50.802Z,78.40
2023-02-07T22:26:20.277Z,78.43
2023-02-07T22:28:48.260Z,78.32
2023-02-07T22:31:35.169Z,78.00
2023-02-07T22:34:05.375Z,77.91
2023-02-07T22:36:33.922Z,78.51
2023-02-07T22:39:01.924Z,78.73
2023-02-07T22:41:29.777Z,79.09
2023-02-07T22:43:56.594Z,79.04
2023-02-07T22:46:24.695Z,78.54
2023-02-07T22:48:52.249Z,78.51
2023-02-07T22:51:24.485Z,78.86
2023-02-07T22:53:59.326Z,78.78
2023-02-07T22:56:27.254Z,77.87
2023-02-07T22:58:54.778Z,77.17
2023-02-07T23:01:27.386Z,77.43
2023-02-07T23:03:54.947Z,77.73
2023-02-07T23:06:22.348Z,77.41
2023-02-07T23:08:49.675Z,77.27
2023-02-07T23:11:19.177Z,77.97
2023-02-07T23:13:45.831Z,78.58
2023-02-07T23:16:14.869Z,78.92
2023-02-07T23:18:42.980Z,79.30
2023-02-07T23:21:12.047Z,79.45
2023-02-07T23:23:39.317Z,79.05
2023-02-07T23:26:11.914Z,79.25
2023-02-07T23:28:38.941Z,78.35
2023-02-07T23:31:07.019Z,78.46
2023-02-07T23:33:34.384Z,78.49
2023-02-07T23:36:01.425Z,78.81
2023-02-07T23:38:28.034Z,78.92
2023-02-07T23:40:54.903Z,78.58
2023-02-07T23:43:21.476Z,78.43
2023-02-07T23:45:48.128Z,78.13
2023-02-07T23:48:14.729Z,78.16
2023-02-07T23:50:41.521Z,78.12
2023-02-07T23:53:08.386Z,78.36
2023-02-07T23:55:35.283Z,78.76
2023-02-07T23:58:01.840Z,78.67
